Airfield :
LOGIN :

Register | Disclaimer

   EN    FR    IT 

 










Legend :    VFR   Marginal VFR   IFR   Intensive IFR   Very Intensive IFR
Visi :
Ceiling :
>= 8 km
>= 3000ft
5 to 8 km
1000 to 3000 ft
1500m to 5 km
500 to 1000 ft
800 to 1500m
200 to 500 ft
< 800m
< 200 ft
Symbols :   Thunderstorms  Fog  Heavy snow  Heavy precipitations  Wind > 20 kt
SIGMETs :     Misc.  Thunderstorms  Icing  Turbulence  Mountain Waves  Volcanic Ashes






- Airport Elevation : 255 ft


ENGC - Gullfaks C oil platform

CURRENT METAR :
  • 221320Z 34038KT 9999 VCSH SCT030 08/01 Q1004 W08/S6

EXPIRED METARs :
  • 221250Z 34035KT 9999 SCT025 08/02 Q1004 W08/S6
  • 221220Z 34037KT 9999 VCSH FEW015CB SCT025 07/02 Q1003 W08/S6
  • 221150Z 34038KT 9999 FEW020TCU SCT030 08/01 Q1002 W08/S6
  • 221120Z 33037KT 9999 FEW020TCU 07/02 Q1002 W08/S6
  • 221050Z 34041KT 9999 VCSH FEW015CB SCT025 08/01 Q1001 W08/S6

TAF TAF ENGC
Valid from the 22 at 12:00 until the 23 at 12:00 UTC


2212/2312 34040G55KT 9999 -SHRA FEW020TCU SCT040
TEMPO 2212/2214 SHRA BKN020CB
BECMG 2212/2215 34030G40KT
BECMG 2221/2224 34020KT
BECMG 2303/2306 26008KT
BECMG 2307/2309 21018KT
BECMG 2309/2311 19028KT



MET'MAP, your aeronautical weather chart ! - Copyright ORBIFLY December 2007 - Disclaimer

ORBIFLY MET'MAP TEAM :

Programming & Development : Alexandra Zaïnal
Concept & original design : Baudouin d'Aumeries
Assistance for programming : Marc-Olivier Méhu
Technical & hardware support : Manuel Goepfert

Contact : metmap@orbifly.com




SOURCES & CREDITS :

   NOAA